createdAt,value
2023-01-21T00:01:01.758Z,133.55
2023-01-21T00:03:28.601Z,137.77
2023-01-21T00:05:55.431Z,148.43
2023-01-21T00:08:22.342Z,138.73
2023-01-21T00:10:49.122Z,144.70
2023-01-21T00:13:16.979Z,143.25
2023-01-21T00:15:43.853Z,128.32
2023-01-21T00:18:10.715Z,152.00
2023-01-21T00:20:37.954Z,141.73
2023-01-21T00:23:04.893Z,137.93
2023-01-21T00:25:31.745Z,140.63
2023-01-21T00:28:00.111Z,145.35
2023-01-21T00:30:27.093Z,152.43
2023-01-21T00:32:53.984Z,142.50
2023-01-21T00:35:20.912Z,143.65
2023-01-21T00:37:47.712Z,123.40
2023-01-21T00:40:14.921Z,123.18
2023-01-21T00:42:41.853Z,124.88
2023-01-21T00:45:11.907Z,135.13
2023-01-21T00:47:38.772Z,125.93
2023-01-21T00:50:06.285Z,123.13
2023-01-21T00:52:33.173Z,126.53
2023-01-21T00:54:59.963Z,144.70
2023-01-21T00:57:29.343Z,135.32
2023-01-21T00:59:56.416Z,127.40
2023-01-21T01:02:23.336Z,143.40
2023-01-21T01:04:50.177Z,124.03
2023-01-21T01:07:18.072Z,123.50
2023-01-21T01:09:44.852Z,136.75
2023-01-21T01:12:11.614Z,121.93
2023-01-21T01:14:38.372Z,115.10
2023-01-21T01:17:05.146Z,128.32
2023-01-21T01:19:32.490Z,131.85
2023-01-21T01:21:59.638Z,133.25
2023-01-21T01:24:26.436Z,138.60
2023-01-21T01:26:53.276Z,120.18
2023-01-21T01:29:20.071Z,123.15
2023-01-21T01:31:46.884Z,133.95
2023-01-21T01:34:13.729Z,137.05
2023-01-21T01:36:40.472Z,127.82
2023-01-21T01:39:07.662Z,129.52
2023-01-21T01:41:35.433Z,131.98
2023-01-21T01:44:05.201Z,117.78
2023-01-21T01:46:37.979Z,124.57
2023-01-21T01:49:15.017Z,109.85
2023-01-21T01:51:49.406Z,120.50
2023-01-21T01:54:20.956Z,134.98
2023-01-21T01:56:51.850Z,130.88
2023-01-21T01:59:19.692Z,126.95
2023-01-21T02:01:46.810Z,124.18
2023-01-21T02:04:20.216Z,132.25
2023-01-21T02:06:48.892Z,142.30
2023-01-21T02:09:16.133Z,146.68
2023-01-21T02:11:43.029Z,133.75
2023-01-21T02:14:10.009Z,139.05
2023-01-21T02:16:57.317Z,144.23
2023-01-21T02:19:44.789Z,144.13
2023-01-21T02:22:42.396Z,136.85
2023-01-21T02:25:34.510Z,141.48
2023-01-21T02:28:01.225Z,142.75
2023-01-21T02:31:01.676Z,133.82
2023-01-21T02:34:08.458Z,140.77
2023-01-21T02:36:50.229Z,134.65
2023-01-21T02:39:35.731Z,151.35
2023-01-21T02:42:18.146Z,134.25
2023-01-21T02:44:50.977Z,122.18
2023-01-21T02:47:42.803Z,141.82
2023-01-21T02:50:16.243Z,127.93
2023-01-21T02:52:43.198Z,136.57
2023-01-21T02:55:18.087Z,136.15
2023-01-21T02:57:52.919Z,125.15
2023-01-21T03:00:52.455Z,140.82
2023-01-21T03:03:51.679Z,140.63
2023-01-21T03:06:39.058Z,140.52
2023-01-21T03:09:24.838Z,139.85
2023-01-21T03:12:05.883Z,131.35
2023-01-21T03:14:59.445Z,151.05
2023-01-21T03:17:34.586Z,143.10
2023-01-21T03:20:32.230Z,139.95
2023-01-21T03:23:04.106Z,147.23
2023-01-21T03:25:34.074Z,142.60
2023-01-21T03:28:05.048Z,165.93
2023-01-21T03:30:34.359Z,162.50
2023-01-21T03:33:02.835Z,164.32
2023-01-21T03:35:37.008Z,151.40
2023-01-21T03:38:22.587Z,163.25
2023-01-21T03:41:13.342Z,161.20
2023-01-21T03:43:40.333Z,155.83
2023-01-21T03:46:22.949Z,161.60
2023-01-21T03:49:05.195Z,181.50
2023-01-21T03:51:47.173Z,144.50
2023-01-21T03:54:16.494Z,145.52
2023-01-21T03:56:43.268Z,149.02
2023-01-21T03:59:10.153Z,136.43
2023-01-21T04:01:36.936Z,131.77
2023-01-21T04:04:03.787Z,142.30
2023-01-21T04:06:30.686Z,152.57
2023-01-21T04:08:57.547Z,154.38
2023-01-21T04:11:24.528Z,148.02
2023-01-21T04:13:51.399Z,126.90
2023-01-21T04:16:18.173Z,134.10
2023-01-21T04:18:44.966Z,132.90
2023-01-21T04:21:11.845Z,111.97
2023-01-21T04:23:38.656Z,131.25
2023-01-21T04:26:05.665Z,124.95
2023-01-21T04:28:32.524Z,118.93
2023-01-21T04:30:59.702Z,114.00
2023-01-21T04:33:26.674Z,118.43
2023-01-21T04:35:59.016Z,123.47
2023-01-21T04:38:26.125Z,116.55
2023-01-21T04:40:53.303Z,119.93
2023-01-21T04:43:20.275Z,134.38
2023-01-21T04:45:47.595Z,123.93
2023-01-21T04:48:16.517Z,116.68
2023-01-21T04:50:43.286Z,112.93
2023-01-21T04:53:10.316Z,107.82
2023-01-21T04:55:37.162Z,106.97
2023-01-21T04:58:03.956Z,121.32
2023-01-21T05:00:30.792Z,128.48
2023-01-21T05:02:57.671Z,111.00
2023-01-21T05:05:24.508Z,106.60
2023-01-21T05:07:54.590Z,110.18
2023-01-21T05:10:21.877Z,129.77
2023-01-21T05:12:48.744Z,129.95
2023-01-21T05:15:16.884Z,135.90
2023-01-21T05:17:43.794Z,124.72
2023-01-21T05:20:11.017Z,142.73
2023-01-21T05:22:38.427Z,139.68
2023-01-21T05:25:06.086Z,136.75
2023-01-21T05:27:32.985Z,140.63
2023-01-21T05:29:59.748Z,150.85
2023-01-21T05:32:27.765Z,150.60
2023-01-21T05:34:54.552Z,156.98
2023-01-21T05:37:21.347Z,164.18
2023-01-21T05:39:48.138Z,156.20
2023-01-21T05:42:15.004Z,145.50
2023-01-21T05:44:41.725Z,134.43
2023-01-21T05:47:08.819Z,136.77
2023-01-21T05:49:36.017Z,156.93
2023-01-21T05:52:03.109Z,148.50
2023-01-21T05:54:30.057Z,158.82
2023-01-21T05:56:56.938Z,138.35
2023-01-21T05:59:25.424Z,161.80
2023-01-21T06:01:52.275Z,168.35
2023-01-21T06:04:19.213Z,185.23
2023-01-21T06:06:47.325Z,222.23
2023-01-21T06:09:14.719Z,207.93
2023-01-21T06:11:42.117Z,268.52
2023-01-21T06:14:08.973Z,260.25
2023-01-21T06:16:35.747Z,264.85
2023-01-21T06:19:02.548Z,285.65
2023-01-21T06:21:29.328Z,329.80
2023-01-21T06:23:56.206Z,318.70
2023-01-21T06:26:23.218Z,349.50
2023-01-21T06:28:49.991Z,361.65
2023-01-21T06:31:16.901Z,347.80
2023-01-21T06:33:43.712Z,344.00
2023-01-21T06:36:10.522Z,337.75
2023-01-21T06:38:37.494Z,360.98
2023-01-21T06:41:04.451Z,357.95
2023-01-21T06:43:32.853Z,358.55
2023-01-21T06:46:00.243Z,383.35
2023-01-21T06:48:27.034Z,365.40
2023-01-21T06:50:53.902Z,382.65
2023-01-21T06:53:20.728Z,398.33
2023-01-21T06:55:48.104Z,342.05
2023-01-21T06:58:15.473Z,369.55
2023-01-21T07:00:42.334Z,329.00
2023-01-21T07:03:09.177Z,342.38
2023-01-21T07:05:36.052Z,380.20
2023-01-21T07:08:02.830Z,341.80
2023-01-21T07:10:29.758Z,356.30
2023-01-21T07:12:56.596Z,426.00
2023-01-21T07:15:23.690Z,632.97
2023-01-21T07:17:50.548Z,468.63
2023-01-21T07:20:18.762Z,484.48
2023-01-21T07:22:45.725Z,466.05
2023-01-21T07:25:12.699Z,387.30
2023-01-21T07:27:41.790Z,419.05
2023-01-21T07:30:10.220Z,477.90
2023-01-21T07:32:36.990Z,514.80
2023-01-21T07:35:03.934Z,452.00
2023-01-21T07:37:33.479Z,617.97
2023-01-21T07:40:00.333Z,557.22
2023-01-21T07:42:27.080Z,535.55
2023-01-21T07:44:53.902Z,887.50
2023-01-21T07:47:20.718Z,790.28
2023-01-21T07:49:49.473Z,1490.43
2023-01-21T07:52:16.543Z,626.47
2023-01-21T07:54:43.397Z,741.70
2023-01-21T07:57:10.287Z,543.03
2023-01-21T07:59:38.188Z,638.80
2023-01-21T08:02:06.531Z,962.38
2023-01-21T08:04:33.435Z,1228.75
2023-01-21T08:07:06.885Z,742.92
2023-01-21T08:09:33.685Z,602.13
2023-01-21T08:12:00.493Z,610.47
2023-01-21T08:14:27.296Z,641.75
2023-01-21T08:16:54.060Z,449.55
2023-01-21T08:19:21.926Z,428.13
2023-01-21T08:21:48.674Z,366.38
2023-01-21T08:24:16.689Z,455.77
2023-01-21T08:26:43.602Z,418.08
2023-01-21T08:29:10.402Z,582.97
2023-01-21T08:31:41.276Z,448.48
2023-01-21T08:34:08.183Z,421.95
2023-01-21T08:36:34.934Z,435.98
2023-01-21T08:39:06.366Z,575.03
2023-01-21T08:44:01.216Z,440.83
2023-01-21T08:46:28.161Z,443.65
2023-01-21T08:48:55.096Z,472.23
2023-01-21T08:51:21.991Z,507.35
2023-01-21T08:53:50.387Z,389.58
2023-01-21T08:56:19.128Z,230.07
2023-01-21T08:58:46.314Z,383.00
2023-01-21T09:01:18.068Z,437.33
2023-01-21T09:03:44.870Z,284.35
2023-01-21T09:06:11.819Z,335.27
2023-01-21T09:08:39.417Z,353.88
2023-01-21T09:11:07.056Z,373.50
2023-01-21T09:13:39.292Z,444.40
2023-01-21T09:16:16.267Z,397.83
2023-01-21T09:18:43.774Z,504.08
2023-01-21T09:21:11.851Z,481.42
2023-01-21T09:23:39.910Z,594.70
2023-01-21T09:26:22.762Z,554.53
2023-01-21T09:28:55.276Z,598.80
2023-01-21T09:31:26.379Z,469.15
2023-01-21T09:33:56.262Z,569.83
2023-01-21T09:36:26.449Z,502.63
2023-01-21T09:38:53.950Z,504.38
2023-01-21T09:41:37.408Z,642.22
2023-01-21T09:44:24.141Z,464.17
2023-01-21T09:47:17.536Z,486.95
2023-01-21T09:49:50.707Z,478.63
2023-01-21T09:52:23.120Z,494.98
2023-01-21T09:54:53.178Z,474.88
2023-01-21T09:57:29.582Z,475.15
2023-01-21T10:00:34.141Z,485.42
2023-01-21T10:03:33.008Z,410.27
2023-01-21T10:06:14.949Z,410.05
2023-01-21T10:09:15.651Z,394.45
2023-01-21T10:12:08.357Z,375.40
2023-01-21T10:15:05.669Z,386.48
2023-01-21T10:18:03.352Z,381.90
2023-01-21T10:20:54.543Z,360.95
2023-01-21T10:23:35.440Z,360.27
2023-01-21T10:26:07.923Z,361.23
2023-01-21T10:28:37.729Z,379.83
2023-01-21T10:31:25.965Z,347.70
2023-01-21T10:33:53.299Z,376.70
2023-01-21T10:36:54.021Z,325.40
2023-01-21T10:39:46.682Z,332.70
2023-01-21T10:42:16.431Z,342.05
2023-01-21T10:45:08.225Z,311.27
2023-01-21T10:48:05.268Z,301.45
2023-01-21T10:50:57.897Z,283.48
2023-01-21T10:53:52.959Z,263.05
2023-01-21T10:56:46.868Z,284.90
2023-01-21T10:59:21.172Z,297.85
2023-01-21T11:01:52.456Z,365.33
2023-01-21T11:04:24.359Z,280.80
2023-01-21T11:07:02.738Z,300.00
2023-01-21T11:09:34.042Z,287.85
2023-01-21T11:12:02.195Z,241.18
2023-01-21T11:14:29.100Z,259.42
2023-01-21T11:16:56.592Z,240.88
2023-01-21T11:19:26.619Z,243.10
2023-01-21T11:22:05.461Z,216.32
2023-01-21T11:24:44.605Z,184.10
2023-01-21T11:27:33.119Z,184.82
2023-01-21T11:30:00.048Z,206.05
2023-01-21T11:32:29.130Z,212.38
2023-01-21T11:35:10.689Z,213.00
2023-01-21T11:37:38.314Z,224.40
2023-01-21T11:40:22.729Z,190.55
2023-01-21T11:42:55.079Z,161.95
2023-01-21T11:45:34.914Z,142.77
2023-01-21T11:48:01.978Z,155.85
2023-01-21T11:50:39.950Z,148.00
2023-01-21T11:53:09.095Z,158.70
2023-01-21T11:55:50.291Z,158.20
2023-01-21T11:58:33.682Z,150.10
2023-01-21T12:01:08.280Z,122.85
2023-01-21T12:03:58.744Z,137.82
2023-01-21T12:06:30.609Z,133.45
2023-01-21T12:09:08.957Z,161.45
2023-01-21T12:11:36.387Z,166.40
2023-01-21T12:14:17.408Z,132.15
2023-01-21T12:17:33.382Z,118.80
2023-01-21T12:20:44.805Z,127.28
2023-01-21T12:23:47.332Z,111.53
2023-01-21T12:26:35.722Z,144.10
2023-01-21T12:29:11.326Z,148.52
2023-01-21T12:31:45.608Z,165.15
2023-01-21T12:35:08.886Z,132.90
2023-01-21T12:37:38.560Z,129.43
2023-01-21T12:40:33.420Z,140.43
2023-01-21T12:43:16.704Z,140.57
2023-01-21T12:46:03.169Z,123.20
2023-01-21T12:48:35.768Z,120.65
2023-01-21T12:51:14.826Z,148.77
2023-01-21T12:53:47.228Z,122.60
2023-01-21T12:56:22.325Z,120.30
2023-01-21T12:58:55.409Z,190.25
2023-01-21T13:01:56.214Z,190.60
2023-01-21T13:04:48.549Z,130.00
2023-01-21T13:07:40.542Z,146.48
2023-01-21T13:10:22.969Z,136.32
2023-01-21T13:12:56.425Z,94.53
2023-01-21T13:15:30.837Z,239.77
2023-01-21T13:18:01.423Z,99.82
2023-01-21T13:20:30.503Z,123.97
2023-01-21T13:22:57.192Z,153.32
2023-01-21T13:25:58.991Z,229.40
2023-01-21T13:28:42.564Z,118.60
2023-01-21T13:31:36.867Z,141.52
2023-01-21T13:34:34.299Z,102.10
2023-01-21T13:37:16.860Z,112.93
2023-01-21T13:40:02.411Z,119.75
2023-01-21T13:42:31.963Z,151.55
2023-01-21T13:45:23.378Z,99.05
2023-01-21T13:48:06.092Z,124.35
2023-01-21T13:50:38.499Z,114.30
2023-01-21T13:53:20.337Z,98.28
2023-01-21T13:55:59.093Z,104.10
2023-01-21T13:58:52.497Z,151.52
2023-01-21T14:01:19.282Z,119.60
2023-01-21T14:04:09.298Z,93.70
2023-01-21T14:06:46.487Z,245.20
2023-01-21T14:09:24.751Z,98.47
2023-01-21T14:12:18.250Z,120.03
2023-01-21T14:14:53.935Z,97.93
2023-01-21T14:17:48.488Z,129.70
2023-01-21T14:20:47.765Z,121.85
2023-01-21T14:23:38.045Z,104.93
2023-01-21T14:26:27.207Z,81.93
2023-01-21T14:29:22.224Z,111.10
2023-01-21T14:32:01.803Z,106.53
2023-01-21T14:34:50.795Z,138.10
2023-01-21T14:37:46.484Z,120.88
2023-01-21T14:40:22.729Z,150.40
2023-01-21T14:42:51.366Z,81.18
2023-01-21T14:45:24.253Z,118.78
2023-01-21T14:47:55.711Z,118.50
2023-01-21T14:53:22.082Z,128.50
2023-01-21T14:56:08.948Z,76.95
2023-01-21T14:58:36.896Z,71.28
2023-01-21T15:01:07.190Z,97.15
2023-01-21T15:03:44.532Z,95.32
2023-01-21T15:06:17.968Z,80.13
2023-01-21T15:08:50.737Z,94.47
2023-01-21T15:11:20.731Z,131.23
2023-01-21T15:14:12.758Z,74.95
2023-01-21T15:16:42.534Z,92.90
2023-01-21T15:19:12.627Z,75.43
2023-01-21T15:21:42.682Z,78.55
2023-01-21T15:24:18.802Z,67.90
2023-01-21T15:27:23.519Z,89.93
2023-01-21T15:29:59.019Z,70.03
2023-01-21T15:32:30.380Z,66.50
2023-01-21T15:35:02.065Z,61.78
2023-01-21T15:37:31.106Z,62.03
2023-01-21T15:40:02.431Z,61.88
2023-01-21T15:42:53.387Z,63.58
2023-01-21T15:45:28.964Z,64.25
2023-01-21T15:48:20.798Z,75.05
2023-01-21T15:51:25.167Z,62.53
2023-01-21T15:56:18.532Z,63.75
2023-01-21T15:58:55.016Z,71.25
2023-01-21T16:01:39.262Z,64.57
2023-01-21T16:04:41.309Z,73.38
2023-01-21T16:07:31.683Z,83.63
2023-01-21T16:10:11.197Z,68.30
2023-01-21T16:12:47.117Z,66.80
2023-01-21T16:15:27.214Z,73.53
2023-01-21T16:18:15.879Z,76.22
2023-01-21T16:20:48.290Z,94.10
2023-01-21T16:23:17.721Z,84.40
2023-01-21T16:25:49.891Z,91.13
2023-01-21T16:28:16.842Z,96.28
2023-01-21T16:30:59.066Z,111.25
2023-01-21T16:33:26.408Z,93.03
2023-01-21T16:36:01.031Z,81.95
2023-01-21T16:38:32.085Z,83.50
2023-01-21T16:41:08.123Z,89.90
2023-01-21T16:43:37.755Z,94.78
2023-01-21T16:46:11.317Z,89.63
2023-01-21T16:48:38.185Z,116.25
2023-01-21T16:51:05.570Z,93.30
2023-01-21T16:53:32.766Z,102.68
2023-01-21T16:55:59.822Z,106.30
2023-01-21T16:58:29.638Z,106.80
2023-01-21T17:01:01.624Z,105.85
2023-01-21T17:03:29.147Z,114.57
2023-01-21T17:06:03.824Z,104.40
2023-01-21T17:08:31.293Z,112.80
2023-01-21T17:11:04.323Z,110.13
2023-01-21T17:13:31.834Z,113.25
2023-01-21T17:16:03.106Z,101.22
2023-01-21T17:18:37.208Z,95.25
2023-01-21T17:21:28.116Z,98.18
2023-01-21T17:23:59.745Z,93.78
2023-01-21T17:26:30.603Z,93.35
2023-01-21T17:29:08.211Z,98.28
2023-01-21T17:31:42.409Z,103.38
2023-01-21T17:34:15.068Z,103.05
2023-01-21T17:36:47.762Z,103.50
2023-01-21T17:39:17.125Z,127.15
2023-01-21T17:41:46.825Z,105.03
2023-01-21T17:44:23.644Z,108.05
2023-01-21T17:46:55.394Z,102.90
2023-01-21T17:49:25.711Z,113.22
2023-01-21T17:51:54.661Z,107.53
2023-01-21T17:54:23.780Z,105.40
2023-01-21T17:57:01.865Z,119.80
2023-01-21T17:59:34.449Z,99.55
2023-01-21T18:02:03.866Z,91.60
2023-01-21T18:04:31.272Z,99.07
2023-01-21T18:07:01.041Z,97.05
2023-01-21T18:09:32.561Z,109.55
2023-01-21T18:12:01.411Z,106.95
2023-01-21T18:14:28.801Z,111.75
2023-01-21T18:16:56.475Z,105.03
2023-01-21T18:19:37.120Z,104.22
2023-01-21T18:22:09.227Z,110.00
2023-01-21T18:24:37.743Z,157.38
2023-01-21T18:27:06.112Z,115.93
2023-01-21T18:29:33.016Z,169.10
2023-01-21T18:31:59.934Z,105.93
2023-01-21T18:34:27.917Z,213.82
2023-01-21T18:36:56.676Z,243.05
2023-01-21T18:39:25.654Z,329.60
2023-01-21T18:41:52.411Z,218.57
2023-01-21T18:44:23.042Z,166.65
2023-01-21T18:46:50.009Z,146.55
2023-01-21T18:49:19.304Z,302.38
2023-01-21T18:51:47.135Z,197.63
2023-01-21T18:54:18.060Z,226.35
2023-01-21T18:56:45.926Z,418.67
2023-01-21T18:59:20.493Z,337.15
2023-01-21T19:01:47.889Z,418.13
2023-01-21T19:04:20.380Z,248.93
2023-01-21T19:06:47.964Z,483.88
2023-01-21T19:09:24.483Z,488.27
2023-01-21T19:11:52.621Z,327.08
2023-01-21T19:14:19.600Z,582.75
2023-01-21T19:16:47.505Z,444.52
2023-01-21T19:19:21.255Z,389.42
2023-01-21T19:21:49.106Z,706.97
2023-01-21T19:24:15.960Z,858.13
2023-01-21T19:26:42.922Z,303.85
2023-01-21T19:29:21.491Z,469.25
2023-01-21T19:31:50.837Z,503.55
2023-01-21T19:34:17.675Z,782.53
2023-01-21T19:36:48.844Z,371.90
2023-01-21T19:39:23.940Z,269.55
2023-01-21T19:42:03.404Z,333.85
2023-01-21T19:44:34.695Z,261.25
2023-01-21T19:47:02.126Z,247.95
2023-01-21T19:49:29.016Z,211.90
2023-01-21T19:51:57.998Z,534.28
2023-01-21T19:54:24.801Z,332.90
2023-01-21T19:56:52.272Z,359.25
2023-01-21T19:59:19.159Z,232.45
2023-01-21T20:01:47.106Z,491.75
2023-01-21T20:04:13.965Z,489.38
2023-01-21T20:06:41.948Z,395.85
2023-01-21T20:09:14.620Z,190.93
2023-01-21T20:11:41.460Z,228.85
2023-01-21T20:14:08.307Z,382.23
2023-01-21T20:16:47.836Z,256.67
2023-01-21T20:19:17.969Z,270.15
2023-01-21T20:21:59.702Z,322.38
2023-01-21T20:24:30.052Z,181.60
2023-01-21T20:26:57.610Z,365.77
2023-01-21T20:29:26.633Z,216.80
2023-01-21T20:31:55.480Z,124.40
2023-01-21T20:34:22.717Z,477.88
2023-01-21T20:36:51.798Z,303.40
2023-01-21T20:39:19.102Z,166.05
2023-01-21T20:41:45.976Z,294.75
2023-01-21T20:44:15.069Z,208.60
2023-01-21T20:46:43.572Z,446.85
2023-01-21T20:49:20.452Z,163.35
2023-01-21T20:51:48.306Z,297.00
2023-01-21T20:54:15.120Z,303.13
2023-01-21T20:56:45.533Z,251.75
2023-01-21T20:59:14.660Z,340.20
2023-01-21T21:01:41.462Z,250.73
2023-01-21T21:04:08.347Z,360.42
2023-01-21T21:06:35.112Z,273.00
2023-01-21T21:09:04.300Z,198.15
2023-01-21T21:11:31.166Z,248.80
2023-01-21T21:13:58.645Z,217.10
2023-01-21T21:16:28.772Z,259.52
2023-01-21T21:18:56.286Z,223.82
2023-01-21T21:21:24.094Z,183.57
2023-01-21T21:23:52.501Z,176.02
2023-01-21T21:26:26.008Z,240.50
2023-01-21T21:29:01.032Z,241.68
2023-01-21T21:31:32.780Z,399.38
2023-01-21T21:33:59.720Z,395.55
2023-01-21T21:36:26.597Z,419.30
2023-01-21T21:38:55.875Z,406.10
2023-01-21T21:41:43.569Z,241.00
2023-01-21T21:44:10.911Z,419.05
2023-01-21T21:46:57.196Z,125.75
2023-01-21T21:49:24.709Z,154.32
2023-01-21T21:51:53.988Z,224.52
2023-01-21T21:54:21.303Z,417.55
2023-01-21T21:56:48.295Z,192.35
2023-01-21T21:59:15.671Z,344.88
2023-01-21T22:01:43.620Z,233.15
2023-01-21T22:04:10.978Z,465.52
2023-01-21T22:06:37.820Z,335.92
2023-01-21T22:09:06.216Z,206.75
2023-01-21T22:11:33.020Z,274.92
2023-01-21T22:14:03.752Z,179.48
2023-01-21T22:16:32.683Z,241.55
2023-01-21T22:19:01.575Z,190.95
2023-01-21T22:21:34.120Z,152.70
2023-01-21T22:24:03.539Z,147.13
2023-01-21T22:26:32.338Z,227.80
2023-01-21T22:28:59.139Z,154.40
2023-01-21T22:31:31.438Z,237.55
2023-01-21T22:33:59.647Z,182.25
2023-01-21T22:36:29.531Z,151.93
2023-01-21T22:38:56.598Z,174.23
2023-01-21T22:41:24.571Z,208.88
2023-01-21T22:43:51.861Z,168.57
2023-01-21T22:46:24.312Z,130.85
2023-01-21T22:48:52.680Z,113.00
2023-01-21T22:51:21.225Z,112.05
2023-01-21T22:53:49.608Z,93.90
2023-01-21T22:56:19.450Z,80.57
2023-01-21T22:58:46.514Z,96.05
2023-01-21T23:01:25.130Z,94.50
2023-01-21T23:03:52.415Z,108.72
2023-01-21T23:06:20.095Z,83.47
2023-01-21T23:08:49.441Z,100.10
2023-01-21T23:11:18.087Z,85.22
2023-01-21T23:13:46.380Z,100.32
2023-01-21T23:16:19.435Z,81.47
2023-01-21T23:18:46.563Z,78.63
2023-01-21T23:21:16.537Z,85.13
2023-01-21T23:23:43.359Z,66.20
2023-01-21T23:26:11.358Z,65.70
2023-01-21T23:28:38.305Z,74.50
2023-01-21T23:31:07.262Z,78.38
2023-01-21T23:33:35.196Z,66.93
2023-01-21T23:36:02.102Z,64.80
2023-01-21T23:38:29.525Z,66.80
2023-01-21T23:40:57.402Z,69.53
2023-01-21T23:43:26.206Z,67.50
2023-01-21T23:45:54.231Z,66.40
2023-01-21T23:48:21.815Z,65.28
2023-01-21T23:50:48.698Z,67.65
2023-01-21T23:53:15.557Z,65.55
2023-01-21T23:55:43.621Z,66.13
2023-01-21T23:58:10.406Z,69.63
